Terminal Aerodrome Forecast
Issued by NWS Kansas City/Pleasant Hill, MO

Home | Current Version | Previous Version | Text Only | Print | Product List | Glossary On
Versions: 1 2 3 4 5 6 7 8 9 10 11 12 13 14 15 16
000
FTUS43 KEAX 311727
TAFMCI
TAF
KMCI 311727Z 3118/0118 VRB05KT P6SM VCTS SCT025 BKN040CB
      TEMPO 3119/3122 -TSRA BKN040CB
     FM010200 33004KT P6SM SCT040 BKN120
     FM010600 34005KT P6SM SCT250=

USA.gov is the U.S. government's official web portal to all federal, state and local government web resources and services.